Time;durP1;ratioP1;P1;durP2;ratioP2;P2;SDS_P1;SDS_P2;PMS_P1;PMS_P2;Temp;Humidity;BMP_temperature;BMP_pressure;BME280_temperature;BME280_humidity;BME280_pressure;Samples;Min_cycle;Max_cycle;Signal;HPM_P1;HPM_P2
2024/03/18 00:02:10;;;;;;;7.75;2.90;;;8.60;99.90;;;;;;5002789;28;20042;-72
2024/03/18 00:04:36;;;;;;;5.60;3.22;;;8.50;99.90;;;;;;5004210;28;20046;-72
2024/03/18 00:07:02;;;;;;;7.75;2.95;;;8.60;99.90;;;;;;4972450;28;20137;-72
2024/03/18 00:09:27;;;;;;;6.35;3.42;;;8.50;99.90;;;;;;4985223;28;20042;-72
2024/03/18 00:11:53;;;;;;;11.13;4.05;;;8.50;99.90;;;;;;4986373;28;20030;-73
2024/03/18 00:14:19;;;;;;;5.43;2.95;;;8.60;99.90;;;;;;4985193;28;20558;-72
2024/03/18 00:16:44;;;;;;;6.50;3.42;;;8.50;99.90;;;;;;4992940;28;20628;-72
2024/03/18 00:19:10;;;;;;;3.25;2.25;;;8.50;99.90;;;;;;5003414;28;20046;-72
2024/03/18 00:21:38;;;;;;;3.95;2.28;;;8.50;99.90;;;;;;4987726;28;20026;-72
2024/03/18 00:24:05;;;;;;;6.30;3.00;;;8.50;99.90;;;;;;4983037;28;20347;-72
2024/03/18 00:26:32;;;;;;;5.53;3.33;;;8.50;99.90;;;;;;4983660;28;20043;-73
2024/03/18 00:28:58;;;;;;;3.63;1.80;;;8.50;99.90;;;;;;4986685;28;20037;-72
2024/03/18 00:31:24;;;;;;;4.47;2.15;;;8.50;99.90;;;;;;4988242;28;20038;-73
2024/03/18 00:33:50;;;;;;;5.72;3.15;;;8.50;99.90;;;;;;4987735;28;20478;-74
2024/03/18 00:36:16;;;;;;;5.40;3.25;;;8.50;99.90;;;;;;5003363;28;20089;-73
2024/03/18 00:38:42;;;;;;;4.10;2.92;;;8.50;99.90;;;;;;5001258;28;20050;-73
2024/03/18 00:43:52;;;;;;;4.57;2.95;;;8.40;99.90;;;;;;4983154;28;20209;-73
2024/03/18 00:46:18;;;;;;;6.28;3.33;;;8.40;99.90;;;;;;4981044;28;20041;-73
2024/03/18 00:48:44;;;;;;;6.93;3.00;;;8.40;99.90;;;;;;4988107;28;20038;-74
2024/03/18 00:51:11;;;;;;;5.45;2.72;;;8.40;99.90;;;;;;4987798;28;20057;-73
2024/03/18 00:53:37;;;;;;;3.95;2.60;;;8.50;99.90;;;;;;4982406;28;20077;-73
2024/03/18 00:56:09;;;;;;;4.80;2.58;;;8.40;99.90;;;;;;4986248;28;20296;-74
2024/03/18 00:58:35;;;;;;;5.85;2.92;;;8.40;99.90;;;;;;4988717;28;20393;-73
2024/03/18 01:01:02;;;;;;;4.32;2.65;;;8.40;99.90;;;;;;4990297;28;20035;-74
2024/03/18 01:03:28;;;;;;;6.20;3.38;;;8.40;99.90;;;;;;4987306;28;20042;-74
2024/03/18 01:05:54;;;;;;;4.55;2.33;;;8.40;99.90;;;;;;4989563;28;20043;-73
2024/03/18 01:08:20;;;;;;;5.55;3.20;;;8.40;99.90;;;;;;4991153;28;20061;-73
2024/03/18 01:10:47;;;;;;;6.90;2.40;;;8.50;99.90;;;;;;4989836;28;20043;-73
2024/03/18 01:13:12;;;;;;;4.20;2.40;;;8.50;99.90;;;;;;4986828;28;20066;-73
2024/03/18 01:15:38;;;;;;;4.38;3.35;;;8.50;99.90;;;;;;4989830;28;20073;-73
2024/03/18 01:18:07;;;;;;;4.95;2.70;;;8.50;99.90;;;;;;4990732;28;20491;-73
2024/03/18 01:20:33;;;;;;;3.88;2.22;;;8.50;99.90;;;;;;4988849;28;20417;-73
2024/03/18 01:23:06;;;;;;;6.68;2.92;;;8.40;99.90;;;;;;5004274;28;20121;-73
2024/03/18 01:25:34;;;;;;;4.55;2.53;;;8.50;99.90;;;;;;4989103;28;20118;-73
2024/03/18 01:28:00;;;;;;;6.05;3.30;;;8.50;99.90;;;;;;4990999;28;20046;-73
2024/03/18 01:30:26;;;;;;;8.20;3.78;;;8.50;99.90;;;;;;4990055;28;20042;-73
2024/03/18 01:32:52;;;;;;;4.40;2.85;;;8.40;99.90;;;;;;4990765;28;20053;-73
2024/03/18 01:35:22;;;;;;;5.25;3.55;;;8.50;99.90;;;;;;5005625;28;20042;-73
2024/03/18 01:37:49;;;;;;;6.20;3.42;;;8.40;99.90;;;;;;5006413;28;20046;-73
2024/03/18 01:40:15;;;;;;;4.13;3.28;;;8.40;99.90;;;;;;4987277;28;20039;-73
2024/03/18 01:42:44;;;;;;;4.55;2.70;;;8.40;99.90;;;;;;4985825;28;20050;-73
2024/03/18 01:45:10;;;;;;;4.82;2.38;;;8.30;99.90;;;;;;4987016;28;20130;-72
2024/03/18 01:47:38;;;;;;;3.72;2.00;;;8.30;99.90;;;;;;4988773;28;20041;-73
2024/03/18 01:50:04;;;;;;;10.27;2.85;;;8.30;99.90;;;;;;4989272;28;20049;-73
2024/03/18 01:52:30;;;;;;;4.20;2.65;;;8.30;99.90;;;;;;4987229;28;20034;-73
2024/03/18 01:54:56;;;;;;;5.88;2.72;;;8.30;99.90;;;;;;5004606;28;20121;-73
2024/03/18 01:57:24;;;;;;;5.43;2.55;;;8.30;99.90;;;;;;5005964;28;20070;-72
2024/03/18 01:59:50;;;;;;;4.38;2.72;;;8.20;99.90;;;;;;4987578;28;20042;-72
2024/03/18 02:02:17;;;;;;;3.80;2.65;;;8.20;99.90;;;;;;4990107;28;20110;-73
2024/03/18 02:04:43;;;;;;;4.93;2.90;;;8.20;99.90;;;;;;4989960;28;20169;-72
2024/03/18 02:07:30;;;;;;;5.75;2.72;;;8.20;99.90;;;;;;5005134;28;20508;-72
2024/03/18 02:09:56;;;;;;;5.07;2.65;;;8.20;99.90;;;;;;4988582;28;20085;-73
2024/03/18 02:12:22;;;;;;;5.93;3.20;;;8.10;99.90;;;;;;5005229;28;20070;-72
2024/03/18 02:14:51;;;;;;;8.57;3.08;;;8.10;99.90;;;;;;5005262;28;20125;-73
2024/03/18 02:17:22;;;;;;;3.95;2.58;;;8.10;99.90;;;;;;4985074;28;20034;-73
2024/03/18 02:19:49;;;;;;;4.82;3.05;;;8.10;99.90;;;;;;4983796;28;20045;-73
2024/03/18 02:22:14;;;;;;;5.18;2.85;;;8.10;99.90;;;;;;4987393;28;20082;-73
2024/03/18 02:24:40;;;;;;;5.03;2.90;;;8.10;99.90;;;;;;4987167;28;20070;-72
2024/03/18 02:27:10;;;;;;;3.97;2.53;;;8.10;99.90;;;;;;5004415;28;20043;-73
2024/03/18 02:29:36;;;;;;;4.22;2.65;;;8.10;99.90;;;;;;4985607;28;20100;-72
2024/03/18 02:32:02;;;;;;;3.90;2.45;;;8.10;99.90;;;;;;4972136;28;20153;-73
2024/03/18 02:34:30;;;;;;;5.20;2.90;;;8.10;99.90;;;;;;4986844;28;20034;-72
2024/03/18 02:36:56;;;;;;;8.13;3.22;;;8.10;99.90;;;;;;4985688;28;20108;-72
2024/03/18 02:39:22;;;;;;;5.47;3.05;;;8.10;99.90;;;;;;4982817;28;20114;-72
2024/03/18 02:41:51;;;;;;;4.32;2.30;;;8.10;99.90;;;;;;4984840;28;20402;-72
2024/03/18 02:44:17;;;;;;;4.47;2.42;;;8.00;99.90;;;;;;4999776;28;20043;-73
2024/03/18 02:46:44;;;;;;;4.15;2.38;;;8.00;99.90;;;;;;4970553;28;20042;-72
2024/03/18 02:49:10;;;;;;;5.03;3.05;;;8.10;99.90;;;;;;4992184;28;20052;-72
2024/03/18 02:51:36;;;;;;;5.40;3.13;;;8.00;99.90;;;;;;4976866;28;20061;-73
2024/03/18 02:54:02;;;;;;;4.03;2.75;;;8.00;99.90;;;;;;4989130;28;20402;-73
2024/03/18 02:56:27;;;;;;;5.68;2.97;;;8.00;99.90;;;;;;4981289;28;20031;-73
2024/03/18 02:58:54;;;;;;;5.05;3.33;;;8.00;99.90;;;;;;5003951;28;20434;-72
2024/03/18 03:01:24;;;;;;;7.50;2.80;;;8.00;99.90;;;;;;4989199;28;20134;-72
2024/03/18 03:03:57;;;;;;;4.55;3.08;;;8.00;99.90;;;;;;4987520;28;20045;-73
2024/03/18 03:06:23;;;;;;;4.85;3.20;;;8.10;99.90;;;;;;4997331;28;20054;-73
2024/03/18 03:08:49;;;;;;;4.82;3.22;;;8.00;99.90;;;;;;4988528;28;20136;-73
2024/03/18 03:11:15;;;;;;;4.25;3.08;;;8.00;99.90;;;;;;4987431;28;20073;-73
2024/03/18 03:13:41;;;;;;;6.22;3.38;;;8.10;99.90;;;;;;4982053;28;20526;-73
2024/03/18 03:16:10;;;;;;;3.20;2.47;;;8.00;99.90;;;;;;4989334;28;20038;-73
2024/03/18 03:18:36;;;;;;;4.43;2.65;;;8.00;99.90;;;;;;4987914;28;20038;-73
2024/03/18 03:21:05;;;;;;;4.93;2.97;;;8.00;99.90;;;;;;5003368;28;20121;-71
2024/03/18 03:23:35;;;;;;;5.80;3.38;;;8.00;99.90;;;;;;4978905;28;20042;-71
2024/03/18 03:26:02;;;;;;;7.70;3.85;;;8.00;99.90;;;;;;4983257;28;20042;-73
2024/03/18 03:28:28;;;;;;;4.85;3.05;;;8.00;99.90;;;;;;4986550;28;20374;-73
2024/03/18 03:31:10;;;;;;;5.82;2.85;;;8.10;99.90;;;;;;4975000;28;20284;-73
2024/03/18 03:33:38;;;;;;;4.43;3.22;;;8.00;99.90;;;;;;4983698;28;20046;-73
2024/03/18 03:36:04;;;;;;;4.93;2.65;;;8.10;99.90;;;;;;5004059;28;20038;-73
2024/03/18 03:38:30;;;;;;;6.25;4.05;;;8.10;99.90;;;;;;4987509;28;20112;-73
2024/03/18 03:40:56;;;;;;;4.70;2.70;;;8.10;99.90;;;;;;4987438;28;20034;-73
2024/03/18 03:43:22;;;;;;;4.22;3.20;;;8.00;99.90;;;;;;4974737;28;20045;-73
2024/03/18 03:45:56;;;;;;;5.95;3.40;;;8.10;99.90;;;;;;4984979;28;20225;-73
2024/03/18 03:48:23;;;;;;;7.32;4.35;;;8.10;99.90;;;;;;4988499;28;20050;-73
2024/03/18 03:50:50;;;;;;;5.40;3.50;;;8.10;99.90;;;;;;4987179;28;20096;-73
2024/03/18 03:53:17;;;;;;;8.07;3.25;;;8.10;99.90;;;;;;4987890;28;20553;-73
2024/03/18 03:55:43;;;;;;;6.15;3.72;;;8.10;99.90;;;;;;4984412;28;20462;-72
2024/03/18 03:58:09;;;;;;;5.53;2.85;;;8.10;99.90;;;;;;4989168;28;20093;-72
2024/03/18 04:00:35;;;;;;;6.70;3.95;;;8.10;99.90;;;;;;4988345;28;20272;-72
2024/03/18 04:03:01;;;;;;;6.03;3.55;;;8.10;99.90;;;;;;4988987;28;20054;-72
2024/03/18 04:05:27;;;;;;;7.47;4.32;;;8.20;99.90;;;;;;4987823;28;20045;-73
2024/03/18 04:07:52;;;;;;;7.18;3.58;;;8.10;99.90;;;;;;4988053;28;20046;-73
2024/03/18 04:10:18;;;;;;;8.85;3.90;;;8.10;99.90;;;;;;4983699;28;20185;-72
2024/03/18 04:12:44;;;;;;;4.50;3.28;;;8.10;99.90;;;;;;5001745;28;20046;-72
2024/03/18 04:15:11;;;;;;;5.20;3.13;;;8.10;99.90;;;;;;4990734;28;20085;-72
2024/03/18 04:17:37;;;;;;;4.88;2.85;;;8.10;99.90;;;;;;4983791;28;20125;-72
2024/03/18 04:20:18;;;;;;;4.88;2.95;;;8.10;99.90;;;;;;4976632;28;20066;-72
2024/03/18 04:22:46;;;;;;;8.55;4.20;;;8.10;99.90;;;;;;4992917;28;20375;-71
2024/03/18 04:25:13;;;;;;;6.40;3.10;;;8.10;99.90;;;;;;4985433;28;20099;-72
2024/03/18 04:27:38;;;;;;;6.57;3.83;;;8.10;99.90;;;;;;4986319;28;20047;-72
2024/03/18 04:30:05;;;;;;;4.25;2.92;;;8.10;99.90;;;;;;4985235;28;20050;-72
2024/03/18 04:32:31;;;;;;;4.15;2.28;;;8.10;99.90;;;;;;4991541;28;20042;-72
2024/03/18 04:34:57;;;;;;;4.95;3.55;;;8.10;99.90;;;;;;5008334;28;20514;-72
2024/03/18 04:37:22;;;;;;;4.25;2.47;;;8.10;99.90;;;;;;5007755;28;20042;-71
2024/03/18 04:39:48;;;;;;;8.43;3.35;;;8.10;99.90;;;;;;4988965;28;20129;-72
2024/03/18 04:42:14;;;;;;;4.22;3.03;;;8.10;99.90;;;;;;5007875;28;20057;-72
2024/03/18 04:44:40;;;;;;;5.78;3.63;;;8.10;99.90;;;;;;4976946;28;20364;-72
2024/03/18 04:47:06;;;;;;;6.10;3.13;;;8.10;99.90;;;;;;5005224;28;20049;-73
2024/03/18 04:49:31;;;;;;;6.43;3.58;;;8.10;99.90;;;;;;5005460;28;20039;-71
2024/03/18 04:51:58;;;;;;;6.78;3.08;;;8.10;99.90;;;;;;5007540;28;20042;-71
2024/03/18 04:54:24;;;;;;;8.43;4.20;;;8.10;99.90;;;;;;4985946;28;20035;-72
2024/03/18 04:56:51;;;;;;;5.95;3.53;;;8.20;99.90;;;;;;4990119;28;20059;-72
2024/03/18 04:59:16;;;;;;;6.32;3.72;;;8.20;99.90;;;;;;4990894;28;20050;-71
2024/03/18 05:01:42;;;;;;;5.15;3.03;;;8.10;99.90;;;;;;4991637;28;20045;-72
2024/03/18 05:04:07;;;;;;;5.60;3.33;;;8.20;99.90;;;;;;5004704;28;20066;-72
2024/03/18 05:06:33;;;;;;;5.75;3.35;;;8.20;99.90;;;;;;4995296;28;20041;-72
2024/03/18 05:08:59;;;;;;;6.65;4.15;;;8.10;99.90;;;;;;4987366;28;20571;-71
2024/03/18 05:11:24;;;;;;;4.22;2.63;;;8.10;99.90;;;;;;5005102;28;20069;-71
2024/03/18 05:13:50;;;;;;;6.97;3.83;;;8.20;99.90;;;;;;5004399;28;20493;-72
2024/03/18 05:16:16;;;;;;;4.57;2.75;;;8.20;99.90;;;;;;5003053;28;20154;-71
2024/03/18 05:18:41;;;;;;;6.05;3.15;;;8.20;99.90;;;;;;4989356;28;20039;-72
2024/03/18 05:21:07;;;;;;;8.98;4.13;;;8.20;99.90;;;;;;5005333;28;20042;-72
2024/03/18 05:23:33;;;;;;;6.95;3.75;;;8.10;99.90;;;;;;4988912;28;20510;-71
2024/03/18 05:25:58;;;;;;;7.28;4.57;;;8.20;99.90;;;;;;4986622;28;20502;-72
2024/03/18 05:28:24;;;;;;;8.30;3.28;;;8.20;99.90;;;;;;4999681;28;20046;-71
2024/03/18 05:30:50;;;;;;;7.63;5.30;;;8.20;99.90;;;;;;4990369;28;20049;-71
2024/03/18 05:33:15;;;;;;;7.63;3.00;;;8.20;99.90;;;;;;4988932;28;20043;-72
2024/03/18 05:35:41;;;;;;;15.90;4.93;;;8.20;99.90;;;;;;4973481;28;20031;-71
2024/03/18 05:38:07;;;;;;;10.57;4.13;;;8.20;99.90;;;;;;4988633;28;20467;-72
2024/03/18 05:40:34;;;;;;;9.77;4.72;;;8.20;99.90;;;;;;4988622;28;20042;-72
2024/03/18 05:43:00;;;;;;;6.78;3.85;;;8.10;99.90;;;;;;4985575;28;20042;-71
2024/03/18 05:45:26;;;;;;;8.63;4.57;;;8.20;99.90;;;;;;4990484;28;20049;-71
2024/03/18 05:47:51;;;;;;;9.05;4.05;;;8.20;99.90;;;;;;4990595;28;20041;-71
2024/03/18 05:50:17;;;;;;;6.22;3.75;;;8.20;99.90;;;;;;4985740;28;20039;-72
2024/03/18 05:52:43;;;;;;;12.48;4.80;;;8.30;99.90;;;;;;4991212;28;20081;-72
2024/03/18 05:55:09;;;;;;;14.52;4.63;;;8.30;99.90;;;;;;4972552;28;20394;-72
2024/03/18 05:57:34;;;;;;;11.85;4.97;;;8.30;99.90;;;;;;5003175;28;20130;-72
2024/03/18 06:00:00;;;;;;;8.68;3.30;;;8.30;99.90;;;;;;4990012;28;20394;-72
2024/03/18 06:02:26;;;;;;;7.10;3.47;;;8.30;99.90;;;;;;4986802;28;20042;-73
2024/03/18 06:04:51;;;;;;;9.25;4.45;;;8.30;99.90;;;;;;4973334;28;20511;-73
2024/03/18 06:07:21;;;;;;;9.48;4.72;;;8.30;99.90;;;;;;4989770;28;20481;-72
2024/03/18 06:09:46;;;;;;;8.50;4.45;;;8.20;99.90;;;;;;4988223;28;20042;-73
2024/03/18 06:12:12;;;;;;;15.35;4.38;;;8.30;99.90;;;;;;5001050;28;20061;-72
2024/03/18 06:14:38;;;;;;;11.10;3.88;;;8.30;99.90;;;;;;5004391;28;20074;-72
2024/03/18 06:17:04;;;;;;;8.90;4.55;;;8.30;99.90;;;;;;4988543;28;20183;-72
2024/03/18 06:19:33;;;;;;;8.95;3.97;;;8.30;99.90;;;;;;4988790;28;20372;-73
2024/03/18 06:22:05;;;;;;;7.63;4.78;;;8.40;99.90;;;;;;4989263;28;20038;-73
2024/03/18 06:25:54;;;;;;;9.95;5.45;;;8.40;99.90;;;;;;4986858;28;20030;-73
2024/03/18 06:27:17;;;;;;;12.38;4.53;;;8.40;99.90;;;;;;4989563;28;20119;-72
2024/03/18 06:29:42;;;;;;;10.32;4.22;;;8.40;99.90;;;;;;4982373;28;20141;-73
2024/03/18 06:32:08;;;;;;;14.77;5.35;;;8.50;99.90;;;;;;4985876;28;20422;-73
2024/03/18 06:34:36;;;;;;;6.80;4.00;;;8.50;99.90;;;;;;4988139;28;20034;-73
2024/03/18 06:37:02;;;;;;;8.07;4.43;;;8.50;99.90;;;;;;4987763;28;20065;-74
2024/03/18 06:39:28;;;;;;;8.13;4.53;;;8.50;99.90;;;;;;4987466;28;20498;-73
2024/03/18 06:41:54;;;;;;;8.70;4.57;;;8.50;99.90;;;;;;5004663;28;20177;-73
2024/03/18 06:44:19;;;;;;;9.13;5.25;;;8.50;99.90;;;;;;4986675;28;20391;-73
2024/03/18 06:46:45;;;;;;;9.80;4.78;;;8.50;99.90;;;;;;4985628;28;20038;-72
2024/03/18 06:49:11;;;;;;;8.55;5.38;;;8.60;99.90;;;;;;4983463;28;20054;-72
2024/03/18 06:51:37;;;;;;;11.38;5.30;;;8.60;99.90;;;;;;4989078;28;20054;-72
2024/03/18 06:54:02;;;;;;;11.13;5.38;;;8.60;99.90;;;;;;5001938;28;20042;-72
2024/03/18 06:56:28;;;;;;;14.30;5.57;;;8.60;99.90;;;;;;4983220;28;20414;-71
2024/03/18 06:58:54;;;;;;;5.95;5.25;;;8.60;99.90;;;;;;4984253;28;20049;-73
2024/03/18 07:01:19;;;;;;;9.10;5.05;;;8.60;99.90;;;;;;4986717;28;20493;-72
2024/03/18 07:03:45;;;;;;;20.05;6.45;;;8.60;99.90;;;;;;5004250;28;20276;-72
2024/03/18 07:06:12;;;;;;;19.92;5.38;;;8.50;99.90;;;;;;4985981;28;20038;-72
2024/03/18 07:08:38;;;;;;;7.10;3.75;;;8.50;99.90;;;;;;4984108;28;20128;-73
2024/03/18 07:11:04;;;;;;;8.73;4.40;;;8.50;99.90;;;;;;4983997;28;20053;-72
2024/03/18 07:13:29;;;;;;;11.15;5.15;;;8.60;99.90;;;;;;5003890;28;20060;-73
2024/03/18 07:15:55;;;;;;;6.72;4.05;;;8.60;99.90;;;;;;4981554;28;20437;-73
2024/03/18 07:18:21;;;;;;;6.47;3.92;;;8.60;99.90;;;;;;4969244;28;20462;-73
2024/03/18 07:20:47;;;;;;;19.00;5.35;;;8.60;99.90;;;;;;4986474;28;20434;-72
2024/03/18 07:23:13;;;;;;;10.38;5.20;;;8.60;99.90;;;;;;5004723;28;20042;-72
2024/03/18 07:25:39;;;;;;;15.13;5.10;;;8.60;99.90;;;;;;4982721;28;20046;-73
2024/03/18 07:28:05;;;;;;;11.63;5.18;;;8.60;99.90;;;;;;4987728;28;20459;-73
2024/03/18 07:30:31;;;;;;;7.93;5.00;;;8.60;99.90;;;;;;4982126;28;20562;-72
2024/03/18 07:32:56;;;;;;;17.80;5.68;;;8.60;99.90;;;;;;4984633;28;20113;-72
2024/03/18 07:35:22;;;;;;;11.85;5.85;;;8.60;99.90;;;;;;4988629;28;20038;-72
2024/03/18 07:37:47;;;;;;;13.40;5.22;;;8.60;99.90;;;;;;5001749;28;20038;-72
2024/03/18 07:40:13;;;;;;;9.48;4.10;;;8.70;99.90;;;;;;4985618;28;20042;-72
2024/03/18 07:42:40;;;;;;;9.23;5.05;;;8.70;99.90;;;;;;5002439;28;20046;-74
2024/03/18 07:45:07;;;;;;;11.38;4.68;;;8.70;99.90;;;;;;4991899;28;20105;-73
2024/03/18 07:47:34;;;;;;;13.70;5.22;;;8.70;99.90;;;;;;4984275;28;20391;-72
2024/03/18 07:50:03;;;;;;;8.63;5.13;;;8.80;99.90;;;;;;4987088;28;20085;-73
2024/03/18 07:52:28;;;;;;;9.38;4.70;;;8.80;99.90;;;;;;4987162;28;20038;-72
2024/03/18 07:54:54;;;;;;;11.48;4.82;;;8.80;99.90;;;;;;4986344;28;20100;-73
2024/03/18 07:57:20;;;;;;;12.68;5.00;;;8.80;99.90;;;;;;4989657;28;20122;-72
2024/03/18 07:59:45;;;;;;;14.35;4.68;;;8.80;99.90;;;;;;5001014;28;20047;-73
2024/03/18 08:02:11;;;;;;;12.60;5.25;;;8.80;99.90;;;;;;4989125;28;20479;-72
2024/03/18 08:04:37;;;;;;;11.27;5.32;;;8.90;99.90;;;;;;5006831;28;20137;-73
2024/03/18 08:07:03;;;;;;;10.48;5.40;;;8.80;99.90;;;;;;4993507;28;20042;-73
2024/03/18 08:09:31;;;;;;;10.80;5.28;;;8.80;99.90;;;;;;4972990;28;20046;-73
2024/03/18 08:11:57;;;;;;;5.75;3.92;;;8.80;99.90;;;;;;4991879;28;20046;-73
2024/03/18 08:14:23;;;;;;;11.07;5.47;;;8.90;99.90;;;;;;4992904;28;20062;-73
2024/03/18 08:16:49;;;;;;;12.95;5.72;;;9.00;99.90;;;;;;5004539;28;20062;-73
2024/03/18 08:19:14;;;;;;;13.88;6.35;;;9.00;99.90;;;;;;5007526;28;20069;-73
2024/03/18 08:21:40;;;;;;;9.23;4.65;;;9.00;99.90;;;;;;4974777;28;20530;-73
2024/03/18 08:24:06;;;;;;;9.70;4.18;;;9.00;99.90;;;;;;5005594;28;20116;-73
2024/03/18 08:26:34;;;;;;;13.40;5.32;;;9.00;99.90;;;;;;4991149;28;20042;-74
2024/03/18 08:29:00;;;;;;;16.98;6.30;;;9.00;99.90;;;;;;4991340;28;20128;-73
2024/03/18 08:31:27;;;;;;;9.43;5.18;;;9.10;99.90;;;;;;4991922;28;20045;-73
2024/03/18 08:33:55;;;;;;;10.50;4.95;;;9.10;99.90;;;;;;5008395;28;20042;-73
2024/03/18 08:36:22;;;;;;;8.15;4.97;;;9.10;99.90;;;;;;4990560;28;20075;-73
2024/03/18 08:38:48;;;;;;;9.70;4.78;;;9.10;99.90;;;;;;4990585;28;20560;-73
2024/03/18 08:41:14;;;;;;;12.65;5.18;;;9.30;99.90;;;;;;4989440;28;20518;-73
2024/03/18 08:43:39;;;;;;;12.93;5.22;;;9.20;99.90;;;;;;4988115;28;20049;-73
2024/03/18 08:46:08;;;;;;;8.57;3.92;;;9.20;99.90;;;;;;4987834;28;20104;-73
2024/03/18 08:48:34;;;;;;;10.18;5.97;;;9.30;99.90;;;;;;4988545;28;20043;-73
2024/03/18 08:51:00;;;;;;;18.08;6.10;;;9.30;99.90;;;;;;4988376;28;20126;-73
2024/03/18 08:53:26;;;;;;;14.63;6.55;;;9.40;99.90;;;;;;4991835;28;20061;-73
2024/03/18 08:55:52;;;;;;;14.88;6.18;;;9.50;99.90;;;;;;4990825;28;20491;-73
2024/03/18 08:58:20;;;;;;;12.02;5.88;;;9.60;99.90;;;;;;4991304;28;20057;-73
2024/03/18 09:00:46;;;;;;;11.95;5.95;;;9.60;99.90;;;;;;4985488;28;20463;-73
2024/03/18 09:03:12;;;;;;;10.30;5.53;;;9.70;99.90;;;;;;4991072;28;20133;-73
2024/03/18 09:05:38;;;;;;;13.73;6.10;;;9.80;99.90;;;;;;4983664;28;20489;-73
2024/03/18 09:08:05;;;;;;;12.48;6.35;;;9.90;99.90;;;;;;5006272;28;20052;-73
2024/03/18 09:10:31;;;;;;;13.90;5.55;;;9.90;99.90;;;;;;4990171;28;20085;-73
2024/03/18 09:12:58;;;;;;;17.25;6.32;;;10.00;99.90;;;;;;4987024;28;20078;-74
2024/03/18 09:15:24;;;;;;;9.38;5.07;;;10.10;99.90;;;;;;4988270;28;20035;-72
2024/03/18 09:17:50;;;;;;;9.98;5.55;;;10.20;99.90;;;;;;4990364;28;20398;-73
2024/03/18 09:20:16;;;;;;;14.45;6.43;;;10.20;99.90;;;;;;4988961;28;20042;-73
2024/03/18 09:22:47;;;;;;;13.60;6.22;;;10.30;99.90;;;;;;4988486;28;20173;-73
2024/03/18 09:25:13;;;;;;;15.55;6.75;;;10.30;99.90;;;;;;4985685;28;20085;-73
2024/03/18 09:27:39;;;;;;;11.65;5.47;;;10.40;99.90;;;;;;4988545;28;20090;-73
2024/03/18 09:30:06;;;;;;;9.77;5.30;;;10.40;99.90;;;;;;4985001;28;20043;-73
2024/03/18 09:32:32;;;;;;;11.57;6.43;;;10.40;99.90;;;;;;4983232;28;20057;-72
2024/03/18 09:34:58;;;;;;;13.10;5.90;;;10.40;99.90;;;;;;4983478;28;20042;-73
2024/03/18 09:37:28;;;;;;;15.55;6.97;;;10.50;99.90;;;;;;5005550;28;20122;-73
2024/03/18 09:39:55;;;;;;;12.23;6.32;;;10.40;99.90;;;;;;4989261;28;20042;-73
2024/03/18 09:42:21;;;;;;;11.88;5.57;;;10.40;99.90;;;;;;4972505;28;20046;-73
2024/03/18 09:44:46;;;;;;;12.20;6.40;;;10.40;99.90;;;;;;4989135;28;20077;-73
2024/03/18 09:47:24;;;;;;;13.13;7.13;;;10.50;99.90;;;;;;5006452;28;20073;-73
2024/03/18 09:49:51;;;;;;;15.00;6.15;;;10.40;99.90;;;;;;4987811;28;20123;-73
2024/03/18 09:52:18;;;;;;;20.52;7.38;;;10.50;99.90;;;;;;4974923;28;20057;-72
2024/03/18 09:54:46;;;;;;;17.27;6.97;;;10.50;99.90;;;;;;5002814;28;20030;-73
2024/03/18 09:57:24;;;;;;;17.48;6.90;;;10.50;99.90;;;;;;4999932;28;20054;-74
2024/03/18 09:59:51;;;;;;;13.45;5.95;;;10.50;99.90;;;;;;4986062;28;20119;-73
2024/03/18 10:02:17;;;;;;;15.77;6.85;;;10.60;99.90;;;;;;4985279;28;20053;-73
2024/03/18 10:04:44;;;;;;;14.73;6.40;;;10.60;99.90;;;;;;4974222;28;20100;-73
2024/03/18 10:07:16;;;;;;;8.95;4.93;;;10.60;99.90;;;;;;4996136;28;20038;-73
2024/03/18 10:09:46;;;;;;;13.82;5.78;;;10.70;99.90;;;;;;4988082;28;20137;-72
2024/03/18 10:12:14;;;;;;;11.43;6.15;;;10.70;99.90;;;;;;4984083;28;20047;-73
2024/03/18 10:14:40;;;;;;;22.17;6.20;;;10.80;99.90;;;;;;4973665;28;20451;-73
2024/03/18 10:17:13;;;;;;;10.10;4.75;;;10.90;99.90;;;;;;4984006;28;20061;-73
2024/03/18 10:19:39;;;;;;;12.18;6.35;;;11.00;99.90;;;;;;4987681;28;20054;-75
2024/03/18 10:22:10;;;;;;;13.20;6.45;;;11.00;99.90;;;;;;4999392;28;20050;-73
2024/03/18 10:24:41;;;;;;;12.95;6.88;;;11.10;99.90;;;;;;4988850;28;20042;-73
2024/03/18 10:27:08;;;;;;;7.97;5.32;;;11.10;99.90;;;;;;5002237;28;20041;-73
2024/03/18 10:29:35;;;;;;;13.23;5.45;;;11.20;99.90;;;;;;4986599;28;20227;-73
2024/03/18 10:32:17;;;;;;;10.68;6.03;;;11.20;99.90;;;;;;5004936;28;20069;-72
2024/03/18 10:34:43;;;;;;;14.80;4.78;;;11.10;99.90;;;;;;4989141;28;20085;-72
2024/03/18 10:37:16;;;;;;;11.60;5.03;;;11.10;99.90;;;;;;4988734;28;20074;-73
2024/03/18 10:40:02;;;;;;;8.63;4.97;;;11.10;99.90;;;;;;4985270;28;20479;-72
2024/03/18 10:42:34;;;;;;;8.65;4.80;;;11.10;99.90;;;;;;4987523;28;20045;-74
2024/03/18 10:45:11;;;;;;;8.40;4.45;;;11.00;99.90;;;;;;4990749;28;20502;-73
2024/03/18 10:47:37;;;;;;;10.75;5.75;;;11.00;99.90;;;;;;5004560;28;20093;-72
2024/03/18 10:50:15;;;;;;;10.90;5.43;;;11.00;99.90;;;;;;5125889;27;20407;-71
2024/03/18 10:52:42;;;;;;;10.93;4.85;;;11.00;99.90;;;;;;5091608;28;20054;-70
2024/03/18 10:55:16;;;;;;;14.82;5.78;;;11.10;99.90;;;;;;5137652;27;20100;-71
2024/03/18 10:57:44;;;;;;;9.20;5.05;;;11.50;99.90;;;;;;5106841;28;20402;-71
2024/03/18 11:00:12;;;;;;;9.50;4.47;;;12.10;99.90;;;;;;5137352;27;20385;-71
2024/03/18 11:02:40;;;;;;;14.20;4.75;;;12.90;99.90;;;;;;5124705;28;20038;-71
2024/03/18 11:05:19;;;;;;;16.20;6.60;;;13.50;99.90;;;;;;5136862;27;20399;-71
2024/03/18 11:07:46;;;;;;;12.43;5.70;;;13.80;99.90;;;;;;5089485;28;20463;-71
2024/03/18 11:10:12;;;;;;;10.90;5.07;;;14.10;99.90;;;;;;5124466;28;20382;-71
2024/03/18 11:12:39;;;;;;;10.68;5.22;;;14.30;99.90;;;;;;5101775;28;20131;-72
2024/03/18 11:15:06;;;;;;;10.70;5.10;;;14.20;99.90;;;;;;5124944;27;20039;-71
2024/03/18 11:17:32;;;;;;;9.73;5.18;;;14.00;99.90;;;;;;5108626;28;20039;-72
2024/03/18 11:19:59;;;;;;;16.52;5.28;;;14.00;99.90;;;;;;5098867;28;20053;-72
2024/03/18 11:22:25;;;;;;;10.90;5.97;;;14.10;99.90;;;;;;5105021;28;20123;-73
2024/03/18 11:24:53;;;;;;;8.18;4.70;;;14.20;99.90;;;;;;5101286;27;20061;-73
2024/03/18 11:27:19;;;;;;;9.98;4.60;;;14.00;99.90;;;;;;5123062;27;20043;-73
2024/03/18 11:29:50;;;;;;;9.93;5.25;;;13.80;99.90;;;;;;5121677;27;20031;-72
2024/03/18 11:32:15;;;;;;;6.55;3.85;;;13.70;99.90;;;;;;5110581;27;20450;-72
2024/03/18 11:34:41;;;;;;;7.95;4.38;;;13.60;99.90;;;;;;5106989;27;20125;-72
2024/03/18 11:37:08;;;;;;;8.23;4.80;;;13.40;99.90;;;;;;5119093;27;20458;-71
2024/03/18 11:39:35;;;;;;;11.55;5.47;;;13.30;99.90;;;;;;5107815;27;20099;-72
2024/03/18 11:42:03;;;;;;;9.75;4.82;;;13.20;99.90;;;;;;5116638;27;20039;-72
2024/03/18 11:44:31;;;;;;;12.55;5.40;;;13.10;99.90;;;;;;5122090;27;20035;-72
2024/03/18 11:47:04;;;;;;;9.43;4.70;;;13.00;99.90;;;;;;5126924;27;20494;-72
2024/03/18 11:49:30;;;;;;;7.43;4.20;;;12.90;99.90;;;;;;5118251;27;20047;-72
2024/03/18 11:52:00;;;;;;;9.48;4.68;;;12.80;99.90;;;;;;5104559;27;20031;-72
2024/03/18 11:54:26;;;;;;;12.70;4.72;;;12.70;99.90;;;;;;5122697;27;20081;-72
2024/03/18 11:57:02;;;;;;;6.25;3.97;;;12.70;99.90;;;;;;5106473;27;20034;-72
2024/03/18 11:59:30;;;;;;;5.78;2.92;;;12.70;99.90;;;;;;5120643;28;20046;-72
2024/03/18 12:01:58;;;;;;;8.05;3.58;;;12.70;99.90;;;;;;5093997;27;20376;-72
2024/03/18 12:04:24;;;;;;;6.90;4.20;;;12.70;99.90;;;;;;5112992;27;20059;-72
2024/03/18 12:06:50;;;;;;;6.40;3.22;;;12.70;99.90;;;;;;5112137;27;20058;-72
2024/03/18 12:09:18;;;;;;;6.30;2.80;;;12.70;99.90;;;;;;5110470;27;20050;-72
2024/03/18 12:11:44;;;;;;;4.97;2.55;;;12.70;99.90;;;;;;5107771;27;20099;-72
2024/03/18 12:14:11;;;;;;;5.63;3.20;;;12.70;99.90;;;;;;5094689;27;20043;-72
2024/03/18 12:16:37;;;;;;;8.40;2.85;;;12.70;99.90;;;;;;5112250;27;20035;-72
2024/03/18 12:19:08;;;;;;;5.10;2.88;;;12.70;99.90;;;;;;5111761;27;20093;-73
2024/03/18 12:21:40;;;;;;;6.03;2.30;;;12.70;99.90;;;;;;5090360;27;20035;-72
2024/03/18 12:29:39;;;;;;;5.32;2.65;;;12.50;99.90;;;;;;5108908;27;20133;-73
2024/03/18 12:32:05;;;;;;;4.93;2.67;;;12.50;99.90;;;;;;5109628;27;20201;-72
2024/03/18 12:34:32;;;;;;;5.65;2.55;;;12.50;99.90;;;;;;5098483;27;20235;-72
2024/03/18 12:37:01;;;;;;;3.28;1.70;;;12.50;99.90;;;;;;5109226;27;20057;-72
2024/03/18 12:39:28;;;;;;;6.82;3.13;;;12.50;99.90;;;;;;5089347;27;20043;-71
2024/03/18 12:41:59;;;;;;;7.05;3.10;;;12.50;99.90;;;;;;5108772;27;20030;-72
2024/03/18 12:44:26;;;;;;;6.50;3.33;;;12.50;99.90;;;;;;5108490;27;20529;-72
2024/03/18 12:46:51;;;;;;;7.47;3.35;;;12.50;99.90;;;;;;5109221;27;20202;-72
2024/03/18 12:49:17;;;;;;;6.35;3.50;;;12.40;99.90;;;;;;5110616;27;20118;-72
2024/03/18 12:51:43;;;;;;;4.47;2.58;;;12.40;99.90;;;;;;5105533;27;20118;-72
2024/03/18 12:54:09;;;;;;;3.38;2.40;;;12.40;99.90;;;;;;5094692;27;20042;-72
2024/03/18 12:56:35;;;;;;;8.38;3.80;;;12.30;99.90;;;;;;5110681;27;21623;-71
2024/03/18 12:59:03;;;;;;;12.20;3.28;;;12.30;99.90;;;;;;5107510;27;20073;-71